Bethpage, New York
Current Conditions -  °F | °C
As of 7:53 PM on Wednesday 22 Oct 2014 (Local Time) from KFRG Reporting Station
Moderate Rain Moderate Rain  
Wind Chill: 11°   Ceiling: 1600
Heat Index: 11°   Visibility: 7mi
Dew Point:   Wind: 23mph
Humidity: 86%   Direction: 10°N
Pressure: 29.72"   Gusts: 33mph
Location:  40.74°N, 73.48°W
Report Text: KFRG 222353Z 01020G29KT 7SM RA BKN016 OVC026 11/09 A2972 RMK AO2 PK WND 01033/2340 SLP065 P0014 60019 T01110089 10139 20111 58024
Loading
Personal Weather Stations






























Interactive Weather Map
Tropical Storm Tracking
New forecast layout! Learn more

10-Day Weather Forecast

Advertisements
Track Severe Weather on mobile